Thunder radar more information blitzortung!


Radar de pluja more information rain snow radar


Visita la nostra xarxa de llocs de meteo:

Template documentation
and downloads

And another site



No particular awareness of the weather is required.    There are no Weather-warnings

Pagina Historial Weather Underground text

Diari Resum Agost 25, 2017 Unitats:  Mètric    Imperial   Tant
« Previous Dia
SegĂźent Dia »
Diari Setmana Mensual Anual Personalitzada
  Maxima: Minima: Media:
Temperatura: -17.8 °C -7.3 °C -2.9 °C
Punt de rosada: -17.8 °C -9.8 °C -8.7 °C
Humitat: Humidity % 34 % 55 %
Wind Speed: 0 km/h 0 km/h 11.4 km/h
RĂ fegues de vent: 0 km/h - -
Vent:- - SE
Pression baro: 0 hPa 34327.3 hPa -
Precipitacions: 0 mm    
Historical Graphs
 
 
Dades de taula per Agost 25, 2017
Temps Temperatura Punt de rosada Pression baro Vent Wind Speed RĂ fegues de vent Humitat Rainfall Rate (Hourly)
-17.8 °C -17.8 °C 0 hPa Calm     Humidity % 0 mm
00:00 -6.4 °C -8.8 °C 34395 hPa Calm     76 % 0 mm
00:03 -5 °C -9.3 °C 34395 hPa Calm     62 % 0 mm
00:08 -5 °C -9 °C 34395 hPa Calm     64 % 0 mm
00:10 -6.5 °C -8.9 °C 34395 hPa Calm   2.6 km/h 76 % 0 mm
00:20 -6.6 °C -8.9 °C 34395 hPa Calm   2.6 km/h 77 % 0 mm
00:30 -6.7 °C -9 °C 34395 hPa Calm     77 % 0 mm
00:40 -6.8 °C -9.1 °C 34395 hPa Calm   2.6 km/h 77 % 0 mm
00:50 -6.9 °C -9.2 °C 34395 hPa Calm     77 % 0 mm
01:00 -6.9 °C -9.2 °C 34395 hPa Calm     77 % 0 mm
01:10 -6.9 °C -9.2 °C 34395 hPa Calm     77 % 0 mm
01:20 -6.9 °C -9.2 °C 34361.1 hPa Calm     77 % 0 mm
01:30 -6.9 °C -9.2 °C 34395 hPa Calm   2.6 km/h 77 % 0 mm
01:40 -6.9 °C -9.3 °C 34395 hPa Calm     77 % 0 mm
01:50 -6.9 °C -9.3 °C 34395 hPa Calm     77 % 0 mm
02:00 -7 °C -9.3 °C 34361.1 hPa Calm     77 % 0 mm
02:10 -7.1 °C -9.3 °C 34361.1 hPa Calm     77 % 0 mm
02:20 -7.1 °C -9.3 °C 34361.1 hPa Calm     78 % 0 mm
02:30 -7.1 °C -9.3 °C 34361.1 hPa Calm   2.6 km/h 78 % 0 mm
02:40 -7.2 °C -9.3 °C 34361.1 hPa Calm   2.6 km/h 78 % 0 mm
02:50 -7.2 °C -9.4 °C 34395 hPa Calm     78 % 0 mm
03:00 -7.2 °C -9.3 °C 34361.1 hPa Calm   2.6 km/h 79 % 0 mm
03:10 -7.2 °C -9.3 °C 34361.1 hPa Calm   2.6 km/h 79 % 0 mm
03:20 -7.3 °C -9.3 °C 34395 hPa Calm     79 % 0 mm
03:30 -7.3 °C -9.3 °C 34395 hPa Calm     80 % 0 mm
03:40 -7.3 °C -9.3 °C 34395 hPa Calm     80 % 0 mm
03:50 -7.2 °C -9.3 °C 34395 hPa Calm   2.6 km/h 79 % 0 mm
04:00 -7.1 °C -9.1 °C 34395 hPa Calm     79 % 0 mm
04:10 -7.1 °C -9.2 °C 34395 hPa Calm     78 % 0 mm
04:20 -7.1 °C -9.3 °C 34395 hPa WNW 2.6 km/h 2.6 km/h 77 % 0 mm
04:30 -6.9 °C -9.1 °C 34395 hPa WSW 2.6 km/h 5.1 km/h 78 % 0 mm
04:40 -6.9 °C -9.2 °C 34395 hPa SW 2.6 km/h 5.1 km/h 77 % 0 mm
05:00 -6.1 °C -8.6 °C 34395 hPa Calm   5.1 km/h 76 % 0 mm
05:10 -5.6 °C -8.6 °C 34395 hPa SSE 2.6 km/h 7.7 km/h 71 % 0 mm
05:20 -5.6 °C -8.8 °C 34395 hPa ESE 5.1 km/h 5.1 km/h 69 % 0 mm
05:30 -5.2 °C -8.7 °C 34395 hPa SE 2.6 km/h 5.1 km/h 67 % 0 mm
05:40 -4.6 °C -8.6 °C 34395 hPa Calm   2.6 km/h 64 % 0 mm
10:44 -3.1 °C -9.4 °C 34428.8 hPa ENE 11.9 km/h 11.9 km/h 50 % 0 mm
10:49 -3.1 °C -9.5 °C 34428.8 hPa ENE 11.9 km/h 11.9 km/h 49 % 0 mm
10:54 -3.1 °C -9.4 °C 34428.8 hPa ENE 6 km/h 6 km/h 50 % 0 mm
10:59 -3.1 °C -9.3 °C 34428.8 hPa NNW 11.9 km/h 11.9 km/h 50 % 0 mm
11:04 -2.8 °C -9.4 °C 34428.8 hPa SE 9 km/h 9 km/h 48 % 0 mm
11:09 -2.7 °C -9.6 °C 34428.8 hPa ESE 11.9 km/h 11.9 km/h 47 % 0 mm
11:14 -2.8 °C -9.4 °C 34428.8 hPa NE 11.9 km/h 11.9 km/h 48 % 0 mm
11:19 -2.6 °C -9.3 °C 34428.8 hPa NNE 11.9 km/h 11.9 km/h 48 % 0 mm
11:24 -2.4 °C -9.1 °C 34428.8 hPa NNE 11.9 km/h 11.9 km/h 48 % 0 mm
11:29 -2.1 °C -8.8 °C 34428.8 hPa ENE 9 km/h 9 km/h 48 % 0 mm
11:34 -2.2 °C -9.1 °C 34428.8 hPa ESE 15 km/h 15 km/h 47 % 0 mm
11:39 -2.3 °C -9.2 °C 34428.8 hPa ENE 11.9 km/h 11.9 km/h 47 % 0 mm
11:44 -2.2 °C -8.8 °C 34428.8 hPa ESE 9.8 km/h 9.8 km/h 48 % 0 mm
11:49 -1.8 °C -8.5 °C 34428.8 hPa North 3.7 km/h   48 % 0 mm
11:54 -1.7 °C -8.4 °C 34428.8 hPa WNW 6.3 km/h 6.3 km/h 48 % 0 mm
11:55 -1.7 °C -8.4 °C 34428.8 hPa WNW 6.3 km/h 6.3 km/h 48 % 0 mm
12:00 -1.6 °C -8.5 °C 34428.8 hPa WSW 9.8 km/h 9.8 km/h 47 % 0 mm
12:05 -1.4 °C -8.5 °C 34428.8 hPa ESE 6 km/h 6 km/h 46 % 0 mm
12:10 -1.1 °C -8.4 °C 34428.8 hPa North 6 km/h 6 km/h 45 % 0 mm
12:15 -1.2 °C -8.3 °C 34428.8 hPa East 9 km/h 9 km/h 46 % 0 mm
12:20 -1.2 °C -8.6 °C 34428.8 hPa North 15 km/h 15 km/h 45 % 0 mm
12:25 -1.2 °C -8.3 °C 34428.8 hPa SSW 5.6 km/h 5.6 km/h 46 % 0 mm
12:30 -0.9 °C -8.5 °C 34395 hPa ESE 17.9 km/h 17.9 km/h 44 % 0 mm
12:35 -0.8 °C -8.4 °C 34395 hPa SSE 7.6 km/h   44 % 0 mm
12:40 -0.8 °C -8.4 °C 34395 hPa ENE 11.9 km/h 11.9 km/h 44 % 0 mm
12:42 -1 °C -8.6 °C 34395 hPa East 11.9 km/h 11.9 km/h 44 % 0 mm
12:47 -0.9 °C -8.7 °C 34395 hPa East 17.9 km/h 17.9 km/h 43 % 0 mm
12:52 -0.8 °C -8.6 °C 34395 hPa South 11.9 km/h 11.9 km/h 43 % 0 mm
12:57 -0.7 °C -8.4 °C 34395 hPa NE 6 km/h 6 km/h 43 % 0 mm
13:02 -0.6 °C -8.4 °C 34395 hPa NE 9 km/h 9 km/h 43 % 0 mm
13:03 -0.7 °C -8.7 °C 34395 hPa ENE 12.2 km/h 12.2 km/h 42 % 0 mm
13:08 -0.7 °C -8.9 °C 34395 hPa SW 15 km/h 15 km/h 41 % 0 mm
13:13 -0.8 °C -8.6 °C 34361.1 hPa South 15 km/h 15 km/h 43 % 0 mm
13:18 -0.5 °C -8.5 °C 34361.1 hPa East 20.9 km/h 20.9 km/h 42 % 0 mm
13:23 -0.5 °C -8.3 °C 34361.1 hPa ENE 23.8 km/h 23.8 km/h 43 % 0 mm
13:28 -0.5 °C -8.3 °C 34395 hPa ESE 20.9 km/h 20.9 km/h 43 % 0 mm
13:33 -0.4 °C -8.3 °C 34395 hPa East 23.8 km/h 23.8 km/h 43 % 0 mm
13:38 -0.4 °C -8.2 °C 34395 hPa ESE 28.2 km/h 28.2 km/h 43 % 0 mm
13:43 -0.5 °C -8.3 °C 34395 hPa East 26.9 km/h 26.9 km/h 43 % 0 mm
13:48 -0.3 °C -8.4 °C 34395 hPa SSE 17.9 km/h 17.9 km/h 42 % 0 mm
13:53 -0.4 °C -8.2 °C 34395 hPa SSE 17.9 km/h 17.9 km/h 43 % 0 mm
13:58 -0.3 °C -8.3 °C 34395 hPa East 26.9 km/h 26.9 km/h 42 % 0 mm
14:03 -0.3 °C -8.3 °C 34395 hPa ESE 23.8 km/h 23.8 km/h 42 % 0 mm
14:08 -0.3 °C -8.4 °C 34395 hPa NNE 20.9 km/h 20.9 km/h 42 % 0 mm
14:13 -0.4 °C -8.4 °C 34395 hPa SSE 20.9 km/h 20.9 km/h 42 % 0 mm
14:15 -0.4 °C -8.4 °C 34395 hPa ESE 26.9 km/h 26.9 km/h 42 % 0 mm
14:20 -0.4 °C -8.4 °C 34395 hPa NNE 29.8 km/h 29.8 km/h 42 % 0 mm
14:25 -0.5 °C -8.3 °C 34395 hPa ESE 22.5 km/h 22.5 km/h 43 % 0 mm
14:30 -0.5 °C -8.3 °C 34395 hPa East 15.3 km/h 16.1 km/h 43 % 0 mm
14:35 -0.5 °C -8.3 °C 34395 hPa ENE 20.9 km/h 20.9 km/h 43 % 0 mm
14:36 -0.5 °C -8.3 °C 34395 hPa NNE 20.9 km/h 20.9 km/h 43 % 0 mm
14:41 -0.7 °C -8.3 °C 34395 hPa East 26.9 km/h 26.9 km/h 44 % 0 mm
14:46 -0.8 °C -8.4 °C 34395 hPa ENE 20.9 km/h 20.9 km/h 44 % 0 mm
14:51 -0.7 °C -8.3 °C 34395 hPa ESE 26.9 km/h 26.9 km/h 44 % 0 mm
14:56 -0.9 °C -8.4 °C 34395 hPa East 20.9 km/h 20.9 km/h 44 % 0 mm
15:01 -0.8 °C -8.4 °C 34395 hPa ESE 29.8 km/h 29.8 km/h 44 % 0 mm
15:06 -0.8 °C -8.4 °C 34395 hPa ESE 29.8 km/h 29.8 km/h 44 % 0 mm
15:11 -0.7 °C -8.1 °C 34361.1 hPa East 24.3 km/h 24.3 km/h 45 % 0 mm
15:16 -0.7 °C -8.1 °C 34361.1 hPa ENE 23.8 km/h 23.8 km/h 45 % 0 mm
15:21 -0.9 °C -8.3 °C 34361.1 hPa East 38.8 km/h 38.8 km/h 45 % 0 mm
15:26 -0.8 °C -8.2 °C 34361.1 hPa ESE 38.8 km/h 38.8 km/h 45 % 0 mm
15:31 -0.7 °C -8.1 °C 34361.1 hPa SSE 23.8 km/h 23.8 km/h 45 % 0 mm
15:36 -0.6 °C -8 °C 34361.1 hPa ENE 20.9 km/h 20.9 km/h 45 % 0 mm
15:41 -0.6 °C -8.2 °C 34361.1 hPa South 17.9 km/h 17.9 km/h 44 % 0 mm
15:46 -0.6 °C -8.2 °C 34361.1 hPa SSE 23.8 km/h 23.8 km/h 44 % 0 mm
15:51 -0.2 °C -7.9 °C 34361.1 hPa SE 17.9 km/h 17.9 km/h 44 % 0 mm
15:56 -0.2 °C -7.9 °C 34361.1 hPa ESE 11.9 km/h 11.9 km/h 44 % 0 mm
16:01 -0.3 °C -8.1 °C 34361.1 hPa East 19.2 km/h 19.2 km/h 43 % 0 mm
16:06 -0.3 °C -7.9 °C 34361.1 hPa East 11.9 km/h 11.9 km/h 44 % 0 mm
16:11 0 °C -7.9 °C 34395 hPa SSE 26.9 km/h 26.9 km/h 43 % 0 mm
16:16 0.3 °C -8 °C 34395 hPa SW 20.9 km/h 20.9 km/h 41 % 0 mm
16:21 0.3 °C -8.2 °C 34395 hPa SSE 9 km/h 9 km/h 40 % 0 mm
16:26 0.3 °C -8 °C 34395 hPa South 15 km/h 15 km/h 41 % 0 mm
16:31 0.3 °C -8.2 °C 34395 hPa NNW 11.9 km/h 11.9 km/h 40 % 0 mm
16:36 0.8 °C -8 °C 34395 hPa SE 9 km/h 9 km/h 39 % 0 mm
16:41 0.9 °C -8.2 °C 34361.1 hPa SSW 17.9 km/h 17.9 km/h 38 % 0 mm
16:46 0.9 °C -8.2 °C 34361.1 hPa West 16.6 km/h 16.6 km/h 38 % 0 mm
16:51 0.8 °C -8.4 °C 34361.1 hPa South 7.6 km/h 7.6 km/h 37 % 0 mm
16:56 0.8 °C -8.5 °C 34361.1 hPa South 9.3 km/h 9.3 km/h 37 % 0 mm
17:01 0.9 °C -8.4 °C 34361.1 hPa NE 15 km/h 15 km/h 37 % 0 mm
17:06 0.7 °C -8.8 °C 34361.1 hPa West 15.6 km/h 15.6 km/h 36 % 0 mm
17:11 0.7 °C -8.8 °C 34361.1 hPa SW 17.9 km/h 17.9 km/h 36 % 0 mm
17:16 0.4 °C -9.3 °C 34361.1 hPa SW 15 km/h 15 km/h 35 % 0 mm
17:21 0.4 °C -9.3 °C 34361.1 hPa SSW 15 km/h 15 km/h 35 % 0 mm
17:26 0.2 °C -9.7 °C 34361.1 hPa SSW 17.9 km/h 17.9 km/h 34 % 0 mm
17:31 0.2 °C -9.8 °C 34361.1 hPa SSW 15 km/h 15 km/h 34 % 0 mm
17:36 0.1 °C -9.6 °C 34361.1 hPa SW 11.9 km/h 11.9 km/h 35 % 0 mm
17:41 0.1 °C -9.6 °C 34361.1 hPa SW 23.8 km/h 23.8 km/h 35 % 0 mm
17:46 0.1 °C -9.6 °C 34361.1 hPa WSW 15 km/h 15 km/h 35 % 0 mm
17:51 0.1 °C -9.6 °C 34361.1 hPa SSW 11.9 km/h 11.9 km/h 35 % 0 mm
17:52 0.1 °C -9.6 °C 34361.1 hPa West 9 km/h 9 km/h 35 % 0 mm
17:57 -0.1 °C -9.8 °C 34361.1 hPa SW 15 km/h 15 km/h 35 % 0 mm
18:02 -0.1 °C -9.4 °C 34361.1 hPa SW 8.5 km/h 8.5 km/h 36 % 0 mm
18:07 -0.2 °C -9.8 °C 34361.1 hPa WSW 15 km/h 15 km/h 35 % 0 mm
18:12 0 °C -9.7 °C 34361.1 hPa SW 9 km/h 9 km/h 35 % 0 mm
18:17 -0.4 °C -9.8 °C 34361.1 hPa SE 15 km/h 15 km/h 36 % 0 mm
18:18 -0.4 °C -9.8 °C 34361.1 hPa SW 15 km/h 15 km/h 36 % 0 mm
18:23 -0.8 °C -9.2 °C 34361.1 hPa ENE 16.6 km/h 16.6 km/h 40 % 0 mm
18:28 -1.1 °C -9.2 °C 34361.1 hPa ENE 19.6 km/h 19.6 km/h 41 % 0 mm
18:33 -1.3 °C -9.2 °C 34361.1 hPa ESE 20.9 km/h 20.9 km/h 42 % 0 mm
18:38 -1.3 °C -9 °C 34361.1 hPa SE 23.8 km/h 23.8 km/h 43 % 0 mm
18:43 -1.3 °C -8.8 °C 34327.3 hPa NNE 23.8 km/h 23.8 km/h 44 % 0 mm
18:48 -1.6 °C -9.1 °C 34327.3 hPa ENE 23.8 km/h 23.8 km/h 44 % 0 mm
18:53 -1.7 °C -8.8 °C 34327.3 hPa ENE 26.9 km/h 26.9 km/h 46 % 0 mm
18:58 -1.8 °C -8.7 °C 34327.3 hPa East 29.8 km/h 29.8 km/h 47 % 0 mm
19:03 -1.9 °C -8.8 °C 34327.3 hPa ENE 19.2 km/h 19.2 km/h 47 % 0 mm
19:08 -2 °C -8.7 °C 34327.3 hPa South 26.9 km/h 26.9 km/h 48 % 0 mm
19:13 -2.1 °C -8.9 °C 34327.3 hPa ESE 35.7 km/h 35.7 km/h 47 % 0 mm
19:18 -2.1 °C -8.8 °C 34327.3 hPa ESE 20.9 km/h 20.9 km/h 48 % 0 mm
19:23 -2.2 °C -8.8 °C 34327.3 hPa SE 15 km/h 15 km/h 48 % 0 mm
19:28 -2.1 °C -8.7 °C 34327.3 hPa ESE 9 km/h 9 km/h 49 % 0 mm
19:33 -2.3 °C -8.8 °C 34327.3 hPa SSE 9 km/h 9 km/h 49 % 0 mm
19:38 -2.4 °C -8.7 °C 34327.3 hPa SE 17.9 km/h 17.9 km/h 50 % 0 mm
19:43 -2.5 °C -8.8 °C 34361.1 hPa SSE 15 km/h 15 km/h 50 % 0 mm
19:48 -2.6 °C -8.7 °C 34361.1 hPa SE 15 km/h 15 km/h 51 % 0 mm
19:53 -2.7 °C -8.8 °C 34361.1 hPa East 9 km/h 9.3 km/h 51 % 0 mm
19:58 -2.8 °C -8.7 °C 34361.1 hPa SE 11.9 km/h 11.9 km/h 52 % 0 mm
20:03 -2.8 °C -8.6 °C 34361.1 hPa ESE 15 km/h 15 km/h 53 % 0 mm
20:08 -2.9 °C -8.7 °C 34361.1 hPa ENE 15 km/h 15 km/h 53 % 0 mm
20:13 -3.1 °C -8.7 °C 34361.1 hPa East 9 km/h 9 km/h 54 % 0 mm
20:18 -3.2 °C -8.6 °C 34361.1 hPa East 11.9 km/h 11.9 km/h 55 % 0 mm
20:23 -3.2 °C -8.7 °C 34361.1 hPa ENE 17.9 km/h 17.9 km/h 55 % 0 mm
20:28 -3.2 °C -8.7 °C 34361.1 hPa ESE 15.3 km/h 15.3 km/h 55 % 0 mm
20:30 -4.9 °C -7.7 °C 34395 hPa NNE 2.6 km/h 5.1 km/h 73 % 0 mm
20:33 -3.3 °C -8.7 °C 34361.1 hPa East 11.9 km/h 11.9 km/h 55 % 0 mm
20:38 -3.4 °C -8.7 °C 34361.1 hPa East 15 km/h 15 km/h 56 % 0 mm
20:40 -4.9 °C -7.8 °C 34395 hPa Calm   5.1 km/h 73 % 0 mm
20:43 -3.5 °C -8.7 °C 34361.1 hPa SE 11.9 km/h 11.9 km/h 56 % 0 mm
20:48 -3.6 °C -8.7 °C 34361.1 hPa East 11.1 km/h 11.1 km/h 57 % 0 mm
20:50 -5.1 °C -7.8 °C 34395 hPa East 2.6 km/h 7.7 km/h 74 % 0 mm
20:53 -3.6 °C -8.6 °C 34361.1 hPa NE 17.9 km/h 17.9 km/h 58 % 0 mm
20:58 -3.7 °C -8.7 °C 34395 hPa ENE 15 km/h 15 km/h 58 % 0 mm
21:00 -5.2 °C -8 °C 34361.1 hPa East 5.1 km/h 7.7 km/h 73 % 0 mm
21:03 -3.8 °C -8.6 °C 34395 hPa East 8 km/h 8 km/h 59 % 0 mm
21:08 -3.8 °C -8.6 °C 34395 hPa NE 6 km/h 6 km/h 59 % 0 mm
21:10 -5.2 °C -7.9 °C 34361.1 hPa NE 2.6 km/h 5.1 km/h 74 % 0 mm
21:13 -3.9 °C -8.5 °C 34361.1 hPa East 9 km/h 9 km/h 60 % 0 mm
21:18 -3.9 °C -8.4 °C 34361.1 hPa NE 17.9 km/h 17.9 km/h 61 % 0 mm
21:20 -5.2 °C -7.9 °C 34395 hPa NNE 5.1 km/h 5.1 km/h 74 % 0 mm
21:23 -4 °C -8.3 °C 34361.1 hPa ESE 9 km/h 9 km/h 62 % 0 mm
21:28 -4 °C -8.2 °C 34395 hPa East 15 km/h 15 km/h 63 % 0 mm
21:30 -5.2 °C -7.9 °C 34395 hPa NE 2.6 km/h 7.7 km/h 74 % 0 mm
21:33 -4.1 °C -8.1 °C 34395 hPa ESE 9 km/h 9 km/h 64 % 0 mm
21:38 -4.1 °C -8.1 °C 34395 hPa ESE 9 km/h 9 km/h 64 % 0 mm
21:40 -5.2 °C -7.9 °C 34395 hPa NE 5.1 km/h 7.7 km/h 74 % 0 mm
21:43 -4.1 °C -8.1 °C 34395 hPa NE 4.2 km/h 4.2 km/h 64 % 0 mm
21:48 -4.1 °C -8.2 °C 34395 hPa ENE 6 km/h 6 km/h 64 % 0 mm
21:50 -5.2 °C -7.8 °C 34395 hPa NNE 2.6 km/h 5.1 km/h 75 % 0 mm
21:53 -4.1 °C -8 °C 34395 hPa NNE 6 km/h 6 km/h 65 % 0 mm
21:58 -4.1 °C -8.2 °C 34395 hPa NE 6.3 km/h 6.3 km/h 64 % 0 mm
22:00 -5.3 °C -7.9 °C 34395 hPa Calm   2.6 km/h 75 % 0 mm
22:03 -4.2 °C -8.1 °C 34395 hPa NE 6 km/h 6 km/h 65 % 0 mm
22:08 -4.2 °C -8.1 °C 34395 hPa NE 9 km/h 9 km/h 65 % 0 mm
22:09 -4.2 °C -8.1 °C 34395 hPa ENE 6.8 km/h 6.8 km/h 65 % 0 mm
22:10 -5.4 °C -7.9 °C 34395 hPa NE 5.1 km/h 10.3 km/h 75 % 0 mm
22:14 -4.2 °C -8.1 °C 34395 hPa NE 8.5 km/h 8.5 km/h 65 % 0 mm
22:19 -4.2 °C -8 °C 34395 hPa East 6 km/h 6 km/h 66 % 0 mm
22:20 -5.4 °C -7.9 °C 34361.1 hPa Calm   5.1 km/h 76 % 0 mm
22:24 -4.2 °C -8 °C 34395 hPa ENE 6 km/h 6 km/h 66 % 0 mm
22:29 -4.2 °C -7.8 °C 34428.8 hPa ENE 6.8 km/h 6.8 km/h 67 % 0 mm
22:30 -5.3 °C -7.8 °C 34361.1 hPa North 5.1 km/h 7.7 km/h 76 % 0 mm
22:34 -4.3 °C -7.8 °C 34428.8 hPa ENE 9 km/h 9 km/h 68 % 0 mm
22:39 -4.3 °C -7.9 °C 34428.8 hPa ENE 6 km/h 6 km/h 67 % 0 mm
22:40 -5.3 °C -7.7 °C 34361.1 hPa NNW 2.6 km/h 5.1 km/h 77 % 0 mm
22:44 -4.3 °C -7.8 °C 34395 hPa East 6 km/h 6 km/h 68 % 0 mm
22:49 -4.3 °C -7.7 °C 34395 hPa ESE 6.3 km/h 6.3 km/h 69 % 0 mm
22:50 -5.3 °C -7.7 °C 34361.1 hPa NNW 2.6 km/h 5.1 km/h 77 % 0 mm
22:54 -4.3 °C -7.8 °C 34395 hPa ESE 6 km/h 6 km/h 68 % 0 mm
23:00 -4.4 °C -7.8 °C 34395 hPa ESE 9 km/h 9 km/h 69 % 0 mm
23:05 -4.5 °C -7.8 °C 34395 hPa SE 6.3 km/h 6.3 km/h 69 % 0 mm
23:10 -4.6 °C -7.9 °C 34395 hPa ESE 9.8 km/h 9.8 km/h 69 % 0 mm
23:15 -4.6 °C -8.1 °C 34395 hPa SSE 6 km/h 6 km/h 68 % 0 mm
23:20 -4.7 °C -8.2 °C 34395 hPa South 6 km/h 6 km/h 68 % 0 mm
23:25 -4.7 °C -8.3 °C 34395 hPa SW 3.7 km/h 3.7 km/h 67 % 0 mm
23:30 -4.7 °C -8.2 °C 34395 hPa SW 6 km/h 6 km/h 68 % 0 mm
23:35 -4.8 °C -8.3 °C 34395 hPa West 3.7 km/h 3.7 km/h 68 % 0 mm
23:40 -4.9 °C -8.4 °C 34395 hPa SW 8.5 km/h 8.5 km/h 68 % 0 mm
23:45 -4.9 °C -8.4 °C 34428.8 hPa WSW 6 km/h 6 km/h 68 % 0 mm
23:50 -4.9 °C -8.4 °C 34428.8 hPa WSW 6 km/h 6 km/h 68 % 0 mm
23:55 -4.9 °C -8.2 °C 34428.8 hPa West 7.6 km/h 7.6 km/h 69 % 0 mm
Meteo Sesrovires
Elogis d' Weather Underground - 4 mb

Guio original per  Jim McMurry - jmcmurry@mwt.net Adaptat per a la plantilla per  Wim van der Kuil - Leuven-Template.eu

Trobareu la nostra informacio del temps tambe a:

Weather Underground

AWEKAS